LPLA METAR and TAF weather

Enter ICAO airport designator
Station Type Date Time Source
LPLA METAR 2019/06/17 12:00 UTC NOAA

LPLA 171200Z /////KT 9999 FEW007 SCT015 BKN025 20/18 Q1009


Station Type Date Time Source
LPLA Decoded METAR 2019/06/17 12:00 UTC NOAA

Lajes Acores , Portugal (LPLA) 38-46N 027-06W 54M
Jun 17, 2019 - 08:00 AM EDT / 2019.06.17 1200 UTC
Visibility: greater than 7 mile(s):0
Sky conditions: mostly cloudy
Temperature: 68 F (20 C)
Dew Point: 64 F (18 C)
Relative Humidity: 88%
Pressure (altimeter): 29.80 in. Hg (1009 hPa)
ob: LPLA 171200Z /////KT 9999 FEW007 SCT015 BKN025 20/18 Q1009
cycle: 12

Station Type Date Time Source
LPLA TAF 2019/06/17 12:18 UTC NOAA

TAF COR LPLA 171102Z 1712/1812 34015KT 9999 FEW015 SCT025 PROB40
TEMPO 1712/1812 7000 -SHRA SCT008 BKN014
TEMPO 1712/1719 35018G30KT
BECMG 1801/1803 36008KT

Example: see airport list